createdAt,value
2023-04-01T00:00:13.444Z,62.42
2023-04-01T00:05:17.548Z,62.24
2023-04-01T00:10:21.216Z,62.06
2023-04-01T00:15:26.317Z,62.23
2023-04-01T00:20:30.282Z,62.06
2023-04-01T00:25:34.057Z,61.80
2023-04-01T00:30:39.982Z,61.85
2023-04-01T00:35:43.443Z,61.88
2023-04-01T00:40:48.882Z,62.34
2023-04-01T00:45:53.789Z,61.83
2023-04-01T00:50:59.500Z,61.22
2023-04-01T00:56:07.439Z,62.14
2023-04-01T01:01:12.528Z,61.36
2023-04-01T01:06:34.424Z,62.16
2023-04-01T01:11:43.602Z,61.86
2023-04-01T01:16:54.360Z,62.21
2023-04-01T01:22:19.576Z,62.58
2023-04-01T01:27:22.951Z,61.29
2023-04-01T01:32:51.948Z,62.21
2023-04-01T01:38:00.046Z,61.67
2023-04-01T01:43:08.343Z,62.34
2023-04-01T01:48:13.443Z,62.77
2023-04-01T01:53:18.442Z,62.25
2023-04-01T01:58:24.658Z,61.39
2023-04-01T02:03:31.593Z,62.39
2023-04-01T02:08:42.100Z,61.80
2023-04-01T02:13:50.350Z,62.02
2023-04-01T02:18:56.278Z,61.83
2023-04-01T02:24:03.425Z,61.87
2023-04-01T02:29:08.895Z,62.33
2023-04-01T02:34:12.421Z,62.29
2023-04-01T02:39:18.144Z,62.19
2023-04-01T02:44:21.710Z,62.31
2023-04-01T02:49:25.145Z,63.17
2023-04-01T02:54:29.953Z,62.71
2023-04-01T02:59:33.133Z,63.25
2023-04-01T03:04:36.574Z,62.71
2023-04-01T03:09:41.903Z,62.78
2023-04-01T03:14:45.344Z,62.63
2023-04-01T03:19:48.778Z,63.05
2023-04-01T03:24:53.610Z,62.85
2023-04-01T03:29:56.872Z,62.65
2023-04-01T03:35:00.350Z,62.66
2023-04-01T03:40:06.131Z,62.78
2023-04-01T03:45:10.237Z,62.48
2023-04-01T03:50:13.672Z,62.51
2023-04-01T03:55:19.253Z,62.62
2023-04-01T04:00:23.019Z,62.72
2023-04-01T04:05:26.925Z,63.54
2023-04-01T04:10:32.000Z,63.22
2023-04-01T04:15:35.484Z,63.34
2023-04-01T04:20:38.895Z,63.35
2023-04-01T04:25:43.957Z,62.52
2023-04-01T04:30:47.374Z,62.56
2023-04-01T04:35:51.497Z,63.03
2023-04-01T04:40:56.656Z,63.01
2023-04-01T04:46:00.118Z,62.26
2023-04-01T04:51:03.829Z,62.14
2023-04-01T04:56:09.197Z,62.46
2023-04-01T05:01:14.716Z,61.74
2023-04-01T05:06:19.730Z,61.57
2023-04-01T05:11:27.104Z,61.79
2023-04-01T05:16:32.601Z,62.56
2023-04-01T05:21:36.059Z,62.84
2023-04-01T05:26:40.964Z,62.48
2023-04-01T05:31:44.702Z,62.19
2023-04-01T05:36:48.248Z,61.96
2023-04-01T05:41:53.218Z,61.83
2023-04-01T05:46:56.388Z,61.39
2023-04-01T05:51:59.840Z,60.70
2023-04-01T05:57:05.567Z,60.78
2023-04-01T06:02:11.135Z,61.22
2023-04-01T06:07:15.124Z,60.99
2023-04-01T06:12:45.479Z,59.35
2023-04-01T06:18:10.254Z,59.33
2023-04-01T06:23:27.046Z,59.34
2023-04-01T06:29:03.162Z,58.51
2023-04-01T06:34:27.908Z,57.85
2023-04-01T06:39:57.742Z,57.52
2023-04-01T06:45:16.210Z,57.92
2023-04-01T06:50:27.696Z,57.34
2023-04-01T06:55:39.019Z,56.62
2023-04-01T07:00:45.611Z,55.50
2023-04-01T07:05:51.711Z,56.46
2023-04-01T07:10:59.660Z,55.93
2023-04-01T07:16:11.134Z,54.91
2023-04-01T07:21:26.092Z,54.16
2023-04-01T07:26:29.520Z,53.53
2023-04-01T07:31:48.185Z,52.34
2023-04-01T07:37:02.490Z,49.15
2023-04-01T07:42:17.924Z,45.79
2023-04-01T07:47:33.940Z,46.11
2023-04-01T07:52:49.754Z,46.09
2023-04-01T07:58:04.331Z,47.65
2023-04-01T08:03:38.515Z,48.21
2023-04-01T08:08:58.141Z,48.31
2023-04-01T08:14:10.929Z,47.99
2023-04-01T08:19:25.163Z,47.52
2023-04-01T08:24:46.565Z,46.39
2023-04-01T08:29:55.376Z,43.18
2023-04-01T08:35:16.835Z,39.74
2023-04-01T08:40:54.316Z,32.89
2023-04-01T08:46:15.897Z,31.76
2023-04-01T08:51:54.165Z,35.27
2023-04-01T08:57:04.222Z,35.24
2023-04-01T09:02:33.398Z,35.47
2023-04-01T09:07:48.014Z,36.54
2023-04-01T09:13:08.285Z,36.51
2023-04-01T09:18:55.198Z,38.72
2023-04-01T09:24:43.033Z,38.21
2023-04-01T09:30:27.556Z,38.90
2023-04-01T09:35:48.523Z,38.28
2023-04-01T09:40:58.641Z,38.06
2023-04-01T09:46:26.094Z,37.20
2023-04-01T09:51:38.711Z,35.85
2023-04-01T09:57:19.050Z,34.88
2023-04-01T10:02:54.518Z,37.25
2023-04-01T10:08:26.534Z,37.40
2023-04-01T10:14:06.544Z,37.48
2023-04-01T10:19:58.009Z,38.60
2023-04-01T10:25:31.196Z,36.04
2023-04-01T10:31:08.590Z,37.15
2023-04-01T10:36:43.416Z,37.11
2023-04-01T10:42:10.301Z,36.09
2023-04-01T10:47:49.237Z,36.54
2023-04-01T10:53:38.932Z,37.42
2023-04-01T10:59:13.306Z,37.25
2023-04-01T11:04:59.531Z,37.75
2023-04-01T11:10:47.281Z,38.11
2023-04-01T11:16:37.208Z,36.92
2023-04-01T11:22:21.248Z,37.89
2023-04-01T11:27:44.309Z,37.83
2023-04-01T11:32:56.113Z,38.24
2023-04-01T11:38:12.878Z,38.24
2023-04-01T11:43:32.912Z,38.15
2023-04-01T11:48:49.338Z,37.36
2023-04-01T11:54:02.831Z,38.53
2023-04-01T11:59:53.868Z,37.85
2023-04-01T12:05:22.128Z,38.20
2023-04-01T12:10:35.556Z,36.53
2023-04-01T12:15:56.453Z,37.64
2023-04-01T12:21:10.892Z,37.72
2023-04-01T12:26:46.221Z,37.33
2023-04-01T12:31:55.414Z,37.98
2023-04-01T12:37:11.074Z,38.05
2023-04-01T12:42:25.995Z,38.63
2023-04-01T12:47:47.050Z,38.24
2023-04-01T12:53:07.893Z,39.13
2023-04-01T12:58:44.314Z,39.26
2023-04-01T13:04:05.610Z,39.07
2023-04-01T13:09:22.330Z,39.74
2023-04-01T13:14:47.289Z,40.31
2023-04-01T13:20:05.816Z,40.74
2023-04-01T13:25:24.267Z,41.13
2023-04-01T13:30:33.118Z,41.41
2023-04-01T13:35:47.013Z,41.88
2023-04-01T13:41:04.182Z,41.37
2023-04-01T13:52:11.581Z,41.96
2023-04-01T13:57:25.481Z,41.75
2023-04-01T14:02:54.595Z,41.41
2023-04-01T14:08:09.555Z,40.93
2023-04-01T14:13:25.702Z,40.99
2023-04-01T14:18:55.510Z,41.35
2023-04-01T14:24:19.889Z,40.90
2023-04-01T14:29:33.223Z,41.27
2023-04-01T14:34:56.602Z,41.08
2023-04-01T14:40:22.578Z,40.47
2023-04-01T14:45:46.583Z,40.85
2023-04-01T14:50:53.810Z,41.84
2023-04-01T14:55:59.738Z,41.90
2023-04-01T15:01:28.400Z,41.14
2023-04-01T15:06:59.290Z,41.88
2023-04-01T15:12:13.461Z,43.03
2023-04-01T15:17:34.380Z,44.11
2023-04-01T15:23:04.411Z,44.94
2023-04-01T15:28:19.518Z,46.19
2023-04-01T15:33:31.088Z,48.23
2023-04-01T15:38:40.902Z,48.01
2023-04-01T15:43:45.862Z,48.54
2023-04-01T15:49:00.588Z,50.23
2023-04-01T15:54:28.307Z,52.09
2023-04-01T15:59:55.839Z,50.61
2023-04-01T16:05:07.808Z,51.87
2023-04-01T16:10:28.509Z,52.44
2023-04-01T16:15:40.081Z,54.40
2023-04-01T16:20:52.359Z,55.63
2023-04-01T16:26:05.972Z,54.44
2023-04-01T16:31:16.624Z,54.55
2023-04-01T16:36:30.542Z,56.26
2023-04-01T16:41:36.922Z,55.43
2023-04-01T16:46:41.844Z,56.40
2023-04-01T16:51:48.829Z,55.86
2023-04-01T16:56:57.148Z,56.82
2023-04-01T17:02:11.658Z,60.63
2023-04-01T17:07:27.780Z,59.17
2023-04-01T17:12:38.765Z,60.26
2023-04-01T17:17:52.061Z,60.26
2023-04-01T17:23:03.222Z,58.65
2023-04-01T17:28:17.453Z,59.75
2023-04-01T17:33:51.485Z,61.01
2023-04-01T17:39:08.285Z,60.86
2023-04-01T17:44:25.804Z,60.04
2023-04-01T17:49:36.595Z,58.38
2023-04-01T17:54:48.938Z,59.15
2023-04-01T18:00:03.927Z,61.02
2023-04-01T18:05:42.864Z,60.41
2023-04-01T18:11:00.912Z,59.27
2023-04-01T18:16:19.719Z,61.12
2023-04-01T18:21:33.284Z,60.31
2023-04-01T18:26:42.023Z,60.29
2023-04-01T18:31:49.475Z,60.70
2023-04-01T18:36:56.064Z,60.63
2023-04-01T18:42:10.140Z,61.04
2023-04-01T18:47:27.371Z,60.29
2023-04-01T18:52:38.432Z,61.13
2023-04-01T18:57:49.064Z,61.60
2023-04-01T19:03:00.553Z,61.58
2023-04-01T19:08:27.497Z,60.72
2023-04-01T19:13:40.253Z,61.99
2023-04-01T19:19:00.588Z,62.10
2023-04-01T19:24:39.678Z,63.13
2023-04-01T19:29:58.983Z,61.33
2023-04-01T19:35:18.489Z,61.88
2023-04-01T19:40:43.918Z,63.96
2023-04-01T19:45:53.951Z,61.29
2023-04-01T19:51:04.306Z,62.61
2023-04-01T19:56:18.238Z,62.88
2023-04-01T20:01:41.539Z,63.15
2023-04-01T20:06:54.125Z,63.19
2023-04-01T20:12:02.514Z,62.56
2023-04-01T20:17:20.728Z,64.06
2023-04-01T20:22:39.305Z,65.42
2023-04-01T20:27:48.838Z,65.10
2023-04-01T20:33:08.838Z,64.58
2023-04-01T20:39:05.994Z,66.39
2023-04-01T20:44:13.029Z,65.43
2023-04-01T20:49:48.592Z,64.83
2023-04-01T20:55:18.960Z,65.54
2023-04-01T21:00:33.997Z,64.54
2023-04-01T21:05:54.995Z,66.26
2023-04-01T21:11:07.062Z,64.53
2023-04-01T21:16:26.401Z,64.99
2023-04-01T21:22:09.454Z,64.67
2023-04-01T21:27:25.313Z,64.96
2023-04-01T21:32:44.142Z,64.20
2023-04-01T21:38:23.398Z,65.35
2023-04-01T21:43:40.458Z,65.09
2023-04-01T21:49:06.874Z,63.73
2023-04-01T21:54:37.400Z,64.88
2023-04-01T22:00:12.660Z,63.81
2023-04-01T22:05:21.023Z,63.89
2023-04-01T22:10:31.825Z,63.94
2023-04-01T22:15:56.686Z,63.99
2023-04-01T22:21:06.438Z,63.73
2023-04-01T22:26:18.073Z,64.48
2023-04-01T22:31:30.983Z,64.61
2023-04-01T22:36:46.168Z,64.39
2023-04-01T22:42:10.910Z,63.79
2023-04-01T22:47:24.230Z,63.39
2023-04-01T22:52:34.458Z,64.43
2023-04-01T22:57:44.144Z,64.88
2023-04-01T23:03:02.975Z,63.55
2023-04-01T23:08:37.384Z,63.92
2023-04-01T23:13:46.415Z,64.71
2023-04-01T23:18:59.299Z,64.86
2023-04-01T23:24:07.885Z,65.66
2023-04-01T23:29:17.440Z,66.29
2023-04-01T23:34:33.490Z,65.74
2023-04-01T23:39:39.352Z,65.96
2023-04-01T23:44:44.428Z,65.87
2023-04-01T23:49:52.516Z,66.26
2023-04-01T23:54:59.336Z,66.55
